sensor_id;sensor_type;location;lat;lon;timestamp;temperature;humidity
14154;DHT22;7157;53.144;7.570;2023-07-29T00:07:21;20.04;97.95
14154;DHT22;7157;53.144;7.570;2023-07-29T00:17:25;19.90;98.70
14154;DHT22;7157;53.144;7.570;2023-07-29T00:27:28;19.84;98.70
14154;DHT22;7157;53.144;7.570;2023-07-29T00:37:32;19.79;98.76
14154;DHT22;7157;53.144;7.570;2023-07-29T00:47:34;19.65;99.03
14154;DHT22;7157;53.144;7.570;2023-07-29T00:57:39;19.54;99.54
14154;DHT22;7157;53.144;7.570;2023-07-29T01:07:49;19.42;100.35
14154;DHT22;7157;53.144;7.570;2023-07-29T01:17:56;19.44;100.50
14154;DHT22;7157;53.144;7.570;2023-07-29T01:28:03;19.47;100.51
14154;DHT22;7157;53.144;7.570;2023-07-29T01:38:11;19.52;100.80
14154;DHT22;7157;53.144;7.570;2023-07-29T01:48:17;19.45;101.19
14154;DHT22;7157;53.144;7.570;2023-07-29T01:58:20;19.39;101.28
14154;DHT22;7157;53.144;7.570;2023-07-29T02:08:24;19.29;101.44
14154;DHT22;7157;53.144;7.570;2023-07-29T02:18:27;19.13;101.85
14154;DHT22;7157;53.144;7.570;2023-07-29T02:28:31;19.14;101.60
14154;DHT22;7157;53.144;7.570;2023-07-29T02:38:33;19.00;101.82
14154;DHT22;7157;53.144;7.570;2023-07-29T02:48:37;18.96;101.83
14154;DHT22;7157;53.144;7.570;2023-07-29T02:58:40;18.87;102.12
14154;DHT22;7157;53.144;7.570;2023-07-29T03:08:45;18.79;102.75
14154;DHT22;7157;53.144;7.570;2023-07-29T03:18:48;18.76;102.93
14154;DHT22;7157;53.144;7.570;2023-07-29T03:28:52;18.71;102.81
14154;DHT22;7157;53.144;7.570;2023-07-29T03:38:55;18.79;102.41
14154;DHT22;7157;53.144;7.570;2023-07-29T03:48:59;18.78;102.15
14154;DHT22;7157;53.144;7.570;2023-07-29T03:59:02;18.74;102.24
14154;DHT22;7157;53.144;7.570;2023-07-29T04:09:07;18.71;102.47
14154;DHT22;7157;53.144;7.570;2023-07-29T04:19:10;18.78;102.44
14154;DHT22;7157;53.144;7.570;2023-07-29T04:29:14;18.76;102.54
14154;DHT22;7157;53.144;7.570;2023-07-29T04:39:17;18.72;102.78
14154;DHT22;7157;53.144;7.570;2023-07-29T04:49:21;18.85;102.66
14154;DHT22;7157;53.144;7.570;2023-07-29T04:59:24;18.80;102.98
14154;DHT22;7157;53.144;7.570;2023-07-29T05:09:28;18.86;102.70
14154;DHT22;7157;53.144;7.570;2023-07-29T05:19:30;19.09;101.97
14154;DHT22;7157;53.144;7.570;2023-07-29T17:22:06;23.57;68.52
14154;DHT22;7157;53.144;7.570;2023-07-29T17:32:09;23.27;69.88
14154;DHT22;7157;53.144;7.570;2023-07-29T17:42:13;23.07;70.55
14154;DHT22;7157;53.144;7.570;2023-07-29T17:52:16;23.29;71.43
14154;DHT22;7157;53.144;7.570;2023-07-29T18:02:20;23.47;72.31
14154;DHT22;7157;53.144;7.570;2023-07-29T18:12:23;23.52;72.88
14154;DHT22;7157;53.144;7.570;2023-07-29T18:22:27;23.16;74.76
14154;DHT22;7157;53.144;7.570;2023-07-29T18:32:30;22.82;76.43
14154;DHT22;7157;53.144;7.570;2023-07-29T18:42:34;22.55;78.76
14154;DHT22;7157;53.144;7.570;2023-07-29T18:52:37;22.57;79.53
14154;DHT22;7157;53.144;7.570;2023-07-29T19:02:42;22.35;81.17
14154;DHT22;7157;53.144;7.570;2023-07-29T19:12:46;21.94;83.60
14154;DHT22;7157;53.144;7.570;2023-07-29T19:22:53;21.61;86.39
14154;DHT22;7157;53.144;7.570;2023-07-29T19:32:56;21.52;86.99
14154;DHT22;7157;53.144;7.570;2023-07-29T19:43:00;21.39;88.03
14154;DHT22;7157;53.144;7.570;2023-07-29T19:53:03;21.21;88.89
14154;DHT22;7157;53.144;7.570;2023-07-29T20:03:08;21.04;89.71
14154;DHT22;7157;53.144;7.570;2023-07-29T20:13:10;20.77;90.60
14154;DHT22;7157;53.144;7.570;2023-07-29T20:23:15;20.66;91.06
14154;DHT22;7157;53.144;7.570;2023-07-29T20:33:17;20.48;92.29
14154;DHT22;7157;53.144;7.570;2023-07-29T20:43:22;20.33;92.78
14154;DHT22;7157;53.144;7.570;2023-07-29T20:53:25;20.30;93.11
14154;DHT22;7157;53.144;7.570;2023-07-29T21:03:29;20.29;93.73
14154;DHT22;7157;53.144;7.570;2023-07-29T21:13:32;20.33;94.12
14154;DHT22;7157;53.144;7.570;2023-07-29T21:23:36;20.35;93.92
14154;DHT22;7157;53.144;7.570;2023-07-29T21:33:39;20.34;93.89
14154;DHT22;7157;53.144;7.570;2023-07-29T21:43:43;20.34;93.32
14154;DHT22;7157;53.144;7.570;2023-07-29T21:53:46;20.21;92.53
14154;DHT22;7157;53.144;7.570;2023-07-29T22:03:51;19.97;92.11
14154;DHT22;7157;53.144;7.570;2023-07-29T22:13:54;19.74;91.28
14154;DHT22;7157;53.144;7.570;2023-07-29T22:23:58;19.58;90.17
14154;DHT22;7157;53.144;7.570;2023-07-29T22:34:01;19.26;90.79
14154;DHT22;7157;53.144;7.570;2023-07-29T22:44:06;19.00;91.24
14154;DHT22;7157;53.144;7.570;2023-07-29T22:54:09;18.82;91.21
14154;DHT22;7157;53.144;7.570;2023-07-29T23:04:13;18.57;91.52
14154;DHT22;7157;53.144;7.570;2023-07-29T23:14:15;18.41;91.66
14154;DHT22;7157;53.144;7.570;2023-07-29T23:24:19;18.27;92.27
14154;DHT22;7157;53.144;7.570;2023-07-29T23:34:22;18.23;92.24
14154;DHT22;7157;53.144;7.570;2023-07-29T23:44:26;18.10;92.60
14154;DHT22;7157;53.144;7.570;2023-07-29T23:54:29;17.93;92.95
